sensor_id;sensor_type;location;lat;lon;timestamp;P1;durP1;ratioP1;P2;durP2;ratioP2
8327;SDS011;4201;48.754;8.864;2022-12-07T00:00:30;16.83;;;11.83;;
8327;SDS011;4201;48.754;8.864;2022-12-07T00:02:56;13.80;;;10.93;;
8327;SDS011;4201;48.754;8.864;2022-12-07T00:05:23;17.20;;;11.50;;
8327;SDS011;4201;48.754;8.864;2022-12-07T00:07:49;16.40;;;11.50;;
8327;SDS011;4201;48.754;8.864;2022-12-07T00:10:15;15.93;;;11.87;;
8327;SDS011;4201;48.754;8.864;2022-12-07T00:12:41;18.70;;;12.17;;
8327;SDS011;4201;48.754;8.864;2022-12-07T00:15:08;18.03;;;12.23;;
8327;SDS011;4201;48.754;8.864;2022-12-07T00:17:36;16.03;;;12.13;;
8327;SDS011;4201;48.754;8.864;2022-12-07T00:20:02;15.37;;;11.50;;
8327;SDS011;4201;48.754;8.864;2022-12-07T00:22:29;16.83;;;12.47;;
8327;SDS011;4201;48.754;8.864;2022-12-07T00:24:55;21.00;;;13.47;;
8327;SDS011;4201;48.754;8.864;2022-12-07T00:27:21;19.33;;;13.17;;
8327;SDS011;4201;48.754;8.864;2022-12-07T00:29:47;18.50;;;13.17;;
8327;SDS011;4201;48.754;8.864;2022-12-07T00:32:14;16.50;;;12.07;;
8327;SDS011;4201;48.754;8.864;2022-12-07T00:34:41;16.70;;;12.47;;
8327;SDS011;4201;48.754;8.864;2022-12-07T00:37:07;15.67;;;13.07;;
8327;SDS011;4201;48.754;8.864;2022-12-07T00:39:34;18.90;;;12.57;;
8327;SDS011;4201;48.754;8.864;2022-12-07T00:42:00;15.73;;;11.70;;
8327;SDS011;4201;48.754;8.864;2022-12-07T00:44:26;17.70;;;12.87;;
8327;SDS011;4201;48.754;8.864;2022-12-07T00:46:52;15.37;;;11.13;;
8327;SDS011;4201;48.754;8.864;2022-12-07T00:49:19;14.97;;;11.50;;
8327;SDS011;4201;48.754;8.864;2022-12-07T00:51:47;14.03;;;10.87;;
8327;SDS011;4201;48.754;8.864;2022-12-07T00:54:14;14.47;;;10.70;;
8327;SDS011;4201;48.754;8.864;2022-12-07T00:56:40;15.40;;;10.27;;
8327;SDS011;4201;48.754;8.864;2022-12-07T00:59:07;16.33;;;10.03;;
8327;SDS011;4201;48.754;8.864;2022-12-07T01:01:34;12.70;;;10.13;;
8327;SDS011;4201;48.754;8.864;2022-12-07T01:04:00;13.67;;;9.57;;
8327;SDS011;4201;48.754;8.864;2022-12-07T01:06:27;14.50;;;10.97;;
8327;SDS011;4201;48.754;8.864;2022-12-07T01:08:55;14.43;;;10.10;;
8327;SDS011;4201;48.754;8.864;2022-12-07T01:11:21;15.67;;;10.60;;
8327;SDS011;4201;48.754;8.864;2022-12-07T01:13:49;14.43;;;10.00;;
8327;SDS011;4201;48.754;8.864;2022-12-07T01:16:15;15.53;;;10.43;;
8327;SDS011;4201;48.754;8.864;2022-12-07T01:18:42;15.17;;;10.57;;
8327;SDS011;4201;48.754;8.864;2022-12-07T01:21:12;14.40;;;9.77;;
8327;SDS011;4201;48.754;8.864;2022-12-07T01:23:38;12.97;;;9.40;;
8327;SDS011;4201;48.754;8.864;2022-12-07T01:26:06;12.47;;;8.90;;
8327;SDS011;4201;48.754;8.864;2022-12-07T01:28:33;16.00;;;10.43;;
8327;SDS011;4201;48.754;8.864;2022-12-07T01:31:00;19.00;;;10.37;;
8327;SDS011;4201;48.754;8.864;2022-12-07T01:33:27;13.07;;;9.37;;
8327;SDS011;4201;48.754;8.864;2022-12-07T01:35:54;10.23;;;8.63;;
8327;SDS011;4201;48.754;8.864;2022-12-07T01:38:20;16.67;;;9.50;;
8327;SDS011;4201;48.754;8.864;2022-12-07T01:40:53;12.30;;;9.37;;
8327;SDS011;4201;48.754;8.864;2022-12-07T01:43:20;10.80;;;8.27;;
8327;SDS011;4201;48.754;8.864;2022-12-07T01:45:47;12.00;;;8.43;;
8327;SDS011;4201;48.754;8.864;2022-12-07T01:48:14;12.37;;;8.83;;
8327;SDS011;4201;48.754;8.864;2022-12-07T01:50:42;12.87;;;9.37;;
8327;SDS011;4201;48.754;8.864;2022-12-07T01:53:09;11.20;;;9.20;;
8327;SDS011;4201;48.754;8.864;2022-12-07T01:55:37;14.60;;;9.30;;
8327;SDS011;4201;48.754;8.864;2022-12-07T01:58:04;12.17;;;9.27;;
8327;SDS011;4201;48.754;8.864;2022-12-07T02:00:32;15.40;;;9.73;;
8327;SDS011;4201;48.754;8.864;2022-12-07T02:03:00;11.13;;;8.40;;
8327;SDS011;4201;48.754;8.864;2022-12-07T02:05:29;14.70;;;10.10;;
8327;SDS011;4201;48.754;8.864;2022-12-07T02:07:56;13.40;;;10.07;;
8327;SDS011;4201;48.754;8.864;2022-12-07T02:10:24;12.20;;;9.03;;
8327;SDS011;4201;48.754;8.864;2022-12-07T02:12:52;14.37;;;9.97;;
8327;SDS011;4201;48.754;8.864;2022-12-07T02:15:20;15.87;;;10.00;;
8327;SDS011;4201;48.754;8.864;2022-12-07T02:17:49;16.27;;;10.03;;
8327;SDS011;4201;48.754;8.864;2022-12-07T02:20:22;14.53;;;10.00;;
8327;SDS011;4201;48.754;8.864;2022-12-07T02:25:41;15.60;;;9.83;;
8327;SDS011;4201;48.754;8.864;2022-12-07T02:28:12;14.73;;;10.50;;
8327;SDS011;4201;48.754;8.864;2022-12-07T02:30:46;17.83;;;12.23;;
8327;SDS011;4201;48.754;8.864;2022-12-07T02:33:14;14.80;;;10.57;;
8327;SDS011;4201;48.754;8.864;2022-12-07T02:35:43;16.10;;;10.93;;
8327;SDS011;4201;48.754;8.864;2022-12-07T02:38:11;15.40;;;10.40;;
8327;SDS011;4201;48.754;8.864;2022-12-07T02:40:41;13.10;;;9.67;;
8327;SDS011;4201;48.754;8.864;2022-12-07T02:43:09;12.93;;;9.50;;
8327;SDS011;4201;48.754;8.864;2022-12-07T02:45:38;15.83;;;11.37;;
8327;SDS011;4201;48.754;8.864;2022-12-07T02:48:06;14.43;;;9.67;;
8327;SDS011;4201;48.754;8.864;2022-12-07T02:50:33;15.50;;;10.60;;
8327;SDS011;4201;48.754;8.864;2022-12-07T02:53:00;17.73;;;12.70;;
8327;SDS011;4201;48.754;8.864;2022-12-07T02:55:28;20.63;;;10.40;;
8327;SDS011;4201;48.754;8.864;2022-12-07T02:58:00;13.97;;;10.17;;
8327;SDS011;4201;48.754;8.864;2022-12-07T03:00:27;15.03;;;10.23;;
8327;SDS011;4201;48.754;8.864;2022-12-07T03:02:55;15.77;;;11.87;;
8327;SDS011;4201;48.754;8.864;2022-12-07T03:05:30;15.20;;;11.00;;
8327;SDS011;4201;48.754;8.864;2022-12-07T03:08:00;16.27;;;12.63;;
8327;SDS011;4201;48.754;8.864;2022-12-07T03:10:28;18.57;;;11.37;;
8327;SDS011;4201;48.754;8.864;2022-12-07T03:13:02;18.00;;;11.93;;
8327;SDS011;4201;48.754;8.864;2022-12-07T03:15:31;20.20;;;11.10;;
8327;SDS011;4201;48.754;8.864;2022-12-07T03:17:59;14.07;;;10.63;;
8327;SDS011;4201;48.754;8.864;2022-12-07T03:20:29;16.83;;;11.47;;
8327;SDS011;4201;48.754;8.864;2022-12-07T03:22:55;18.37;;;11.90;;
8327;SDS011;4201;48.754;8.864;2022-12-07T03:25:23;17.40;;;11.40;;
8327;SDS011;4201;48.754;8.864;2022-12-07T03:27:51;18.60;;;11.53;;
8327;SDS011;4201;48.754;8.864;2022-12-07T03:30:21;15.73;;;11.77;;
8327;SDS011;4201;48.754;8.864;2022-12-07T03:32:49;14.17;;;10.47;;
8327;SDS011;4201;48.754;8.864;2022-12-07T03:35:16;14.90;;;10.97;;
8327;SDS011;4201;48.754;8.864;2022-12-07T03:37:47;15.73;;;10.53;;
8327;SDS011;4201;48.754;8.864;2022-12-07T03:40:16;14.30;;;10.60;;
8327;SDS011;4201;48.754;8.864;2022-12-07T03:42:44;16.50;;;11.53;;
8327;SDS011;4201;48.754;8.864;2022-12-07T03:45:11;18.17;;;12.10;;
8327;SDS011;4201;48.754;8.864;2022-12-07T03:47:38;17.53;;;10.90;;
8327;SDS011;4201;48.754;8.864;2022-12-07T03:50:09;14.97;;;10.77;;
8327;SDS011;4201;48.754;8.864;2022-12-07T03:52:39;13.90;;;10.47;;
8327;SDS011;4201;48.754;8.864;2022-12-07T03:55:09;13.70;;;9.10;;
8327;SDS011;4201;48.754;8.864;2022-12-07T03:57:37;13.90;;;9.67;;
8327;SDS011;4201;48.754;8.864;2022-12-07T04:00:05;12.63;;;9.83;;
8327;SDS011;4201;48.754;8.864;2022-12-07T04:02:32;12.43;;;8.87;;
8327;SDS011;4201;48.754;8.864;2022-12-07T04:04:59;14.10;;;10.10;;
8327;SDS011;4201;48.754;8.864;2022-12-07T04:07:25;14.50;;;9.33;;
8327;SDS011;4201;48.754;8.864;2022-12-07T04:09:51;10.33;;;8.30;;
8327;SDS011;4201;48.754;8.864;2022-12-07T04:12:21;12.53;;;8.03;;
8327;SDS011;4201;48.754;8.864;2022-12-07T04:14:47;10.97;;;7.73;;
8327;SDS011;4201;48.754;8.864;2022-12-07T04:17:13;13.10;;;8.30;;
8327;SDS011;4201;48.754;8.864;2022-12-07T04:19:39;12.23;;;8.10;;
8327;SDS011;4201;48.754;8.864;2022-12-07T04:22:07;11.60;;;8.10;;
8327;SDS011;4201;48.754;8.864;2022-12-07T04:24:34;12.43;;;7.80;;
8327;SDS011;4201;48.754;8.864;2022-12-07T04:27:00;11.67;;;7.20;;
8327;SDS011;4201;48.754;8.864;2022-12-07T04:29:28;10.73;;;7.40;;
8327;SDS011;4201;48.754;8.864;2022-12-07T04:31:54;11.37;;;8.70;;
8327;SDS011;4201;48.754;8.864;2022-12-07T04:34:20;10.23;;;7.13;;
8327;SDS011;4201;48.754;8.864;2022-12-07T04:36:47;11.90;;;7.90;;
8327;SDS011;4201;48.754;8.864;2022-12-07T04:39:17;14.27;;;10.20;;
8327;SDS011;4201;48.754;8.864;2022-12-07T04:41:44;11.40;;;8.90;;
8327;SDS011;4201;48.754;8.864;2022-12-07T04:44:10;14.00;;;10.07;;
8327;SDS011;4201;48.754;8.864;2022-12-07T04:46:41;13.60;;;9.77;;
8327;SDS011;4201;48.754;8.864;2022-12-07T04:49:07;11.70;;;8.67;;
8327;SDS011;4201;48.754;8.864;2022-12-07T04:51:33;12.20;;;8.37;;
8327;SDS011;4201;48.754;8.864;2022-12-07T04:54:00;11.13;;;7.47;;
8327;SDS011;4201;48.754;8.864;2022-12-07T04:56:26;12.57;;;7.30;;
8327;SDS011;4201;48.754;8.864;2022-12-07T04:58:52;10.67;;;7.53;;
8327;SDS011;4201;48.754;8.864;2022-12-07T05:01:19;10.27;;;6.63;;
8327;SDS011;4201;48.754;8.864;2022-12-07T05:03:47;7.43;;;5.60;;
8327;SDS011;4201;48.754;8.864;2022-12-07T05:06:14;9.50;;;6.60;;
8327;SDS011;4201;48.754;8.864;2022-12-07T05:08:41;10.10;;;7.47;;
8327;SDS011;4201;48.754;8.864;2022-12-07T05:11:08;12.20;;;7.40;;
8327;SDS011;4201;48.754;8.864;2022-12-07T05:13:34;11.63;;;7.13;;
8327;SDS011;4201;48.754;8.864;2022-12-07T05:16:01;11.10;;;7.03;;
8327;SDS011;4201;48.754;8.864;2022-12-07T05:18:27;10.23;;;6.10;;
8327;SDS011;4201;48.754;8.864;2022-12-07T05:20:55;8.00;;;5.10;;
8327;SDS011;4201;48.754;8.864;2022-12-07T05:23:21;9.10;;;5.43;;
8327;SDS011;4201;48.754;8.864;2022-12-07T05:25:47;9.20;;;6.07;;
8327;SDS011;4201;48.754;8.864;2022-12-07T05:28:13;9.40;;;5.97;;
8327;SDS011;4201;48.754;8.864;2022-12-07T05:30:40;8.27;;;5.90;;
8327;SDS011;4201;48.754;8.864;2022-12-07T05:33:06;11.93;;;7.27;;
8327;SDS011;4201;48.754;8.864;2022-12-07T05:35:32;9.73;;;6.10;;
8327;SDS011;4201;48.754;8.864;2022-12-07T05:38:00;9.83;;;6.37;;
8327;SDS011;4201;48.754;8.864;2022-12-07T05:40:26;9.60;;;6.17;;
8327;SDS011;4201;48.754;8.864;2022-12-07T05:42:52;9.90;;;6.63;;
8327;SDS011;4201;48.754;8.864;2022-12-07T05:45:18;8.67;;;6.23;;
8327;SDS011;4201;48.754;8.864;2022-12-07T05:47:44;10.40;;;6.77;;
8327;SDS011;4201;48.754;8.864;2022-12-07T05:50:10;9.27;;;6.10;;
8327;SDS011;4201;48.754;8.864;2022-12-07T05:52:36;10.87;;;6.90;;
8327;SDS011;4201;48.754;8.864;2022-12-07T05:55:04;10.83;;;6.23;;
8327;SDS011;4201;48.754;8.864;2022-12-07T05:57:32;10.80;;;7.23;;
8327;SDS011;4201;48.754;8.864;2022-12-07T05:59:58;10.40;;;7.00;;
8327;SDS011;4201;48.754;8.864;2022-12-07T06:02:23;9.90;;;7.00;;
8327;SDS011;4201;48.754;8.864;2022-12-07T06:04:49;11.60;;;7.50;;
8327;SDS011;4201;48.754;8.864;2022-12-07T06:07:16;13.90;;;8.50;;
8327;SDS011;4201;48.754;8.864;2022-12-07T06:09:42;10.43;;;7.30;;
8327;SDS011;4201;48.754;8.864;2022-12-07T06:12:10;10.40;;;7.43;;
8327;SDS011;4201;48.754;8.864;2022-12-07T06:14:55;11.03;;;6.77;;
8327;SDS011;4201;48.754;8.864;2022-12-07T06:17:21;12.00;;;6.93;;
8327;SDS011;4201;48.754;8.864;2022-12-07T06:19:47;10.27;;;6.30;;
8327;SDS011;4201;48.754;8.864;2022-12-07T06:22:14;9.17;;;6.63;;
8327;SDS011;4201;48.754;8.864;2022-12-07T06:24:41;10.10;;;6.60;;
8327;SDS011;4201;48.754;8.864;2022-12-07T06:27:07;9.60;;;6.67;;
8327;SDS011;4201;48.754;8.864;2022-12-07T06:29:35;8.73;;;6.10;;
8327;SDS011;4201;48.754;8.864;2022-12-07T06:32:01;9.93;;;6.00;;
8327;SDS011;4201;48.754;8.864;2022-12-07T06:34:28;10.90;;;6.90;;
8327;SDS011;4201;48.754;8.864;2022-12-07T06:36:54;12.13;;;7.37;;
8327;SDS011;4201;48.754;8.864;2022-12-07T06:39:21;10.97;;;6.80;;
8327;SDS011;4201;48.754;8.864;2022-12-07T06:41:48;12.20;;;8.43;;
8327;SDS011;4201;48.754;8.864;2022-12-07T06:44:16;12.57;;;8.30;;
8327;SDS011;4201;48.754;8.864;2022-12-07T06:46:44;11.90;;;8.00;;
8327;SDS011;4201;48.754;8.864;2022-12-07T06:49:10;10.20;;;6.73;;
8327;SDS011;4201;48.754;8.864;2022-12-07T06:51:37;9.40;;;6.60;;
8327;SDS011;4201;48.754;8.864;2022-12-07T06:54:06;13.47;;;7.63;;
8327;SDS011;4201;48.754;8.864;2022-12-07T06:56:33;9.73;;;6.27;;
8327;SDS011;4201;48.754;8.864;2022-12-07T06:58:59;12.07;;;6.70;;
8327;SDS011;4201;48.754;8.864;2022-12-07T07:01:25;13.10;;;7.73;;
8327;SDS011;4201;48.754;8.864;2022-12-07T07:03:53;12.00;;;7.47;;
8327;SDS011;4201;48.754;8.864;2022-12-07T07:06:19;12.33;;;5.80;;
8327;SDS011;4201;48.754;8.864;2022-12-07T07:08:45;10.63;;;7.33;;
8327;SDS011;4201;48.754;8.864;2022-12-07T07:11:12;10.43;;;6.90;;
8327;SDS011;4201;48.754;8.864;2022-12-07T07:13:38;10.80;;;7.00;;
8327;SDS011;4201;48.754;8.864;2022-12-07T07:16:05;11.10;;;6.90;;
8327;SDS011;4201;48.754;8.864;2022-12-07T07:18:31;11.07;;;7.47;;
8327;SDS011;4201;48.754;8.864;2022-12-07T07:20:59;11.80;;;7.37;;
8327;SDS011;4201;48.754;8.864;2022-12-07T07:23:25;9.00;;;6.47;;
8327;SDS011;4201;48.754;8.864;2022-12-07T07:25:52;12.33;;;6.10;;
8327;SDS011;4201;48.754;8.864;2022-12-07T07:28:18;9.80;;;7.20;;
8327;SDS011;4201;48.754;8.864;2022-12-07T07:30:44;8.50;;;6.73;;
8327;SDS011;4201;48.754;8.864;2022-12-07T07:33:11;10.50;;;7.00;;
8327;SDS011;4201;48.754;8.864;2022-12-07T07:35:37;10.77;;;6.50;;
8327;SDS011;4201;48.754;8.864;2022-12-07T07:38:05;8.73;;;5.43;;
8327;SDS011;4201;48.754;8.864;2022-12-07T07:40:32;7.17;;;5.20;;
8327;SDS011;4201;48.754;8.864;2022-12-07T07:42:58;8.60;;;5.70;;
8327;SDS011;4201;48.754;8.864;2022-12-07T07:45:25;8.53;;;4.97;;
8327;SDS011;4201;48.754;8.864;2022-12-07T07:47:52;11.50;;;6.30;;
8327;SDS011;4201;48.754;8.864;2022-12-07T07:50:18;9.03;;;5.40;;
8327;SDS011;4201;48.754;8.864;2022-12-07T07:52:45;8.67;;;5.07;;
8327;SDS011;4201;48.754;8.864;2022-12-07T07:55:14;7.90;;;4.87;;
8327;SDS011;4201;48.754;8.864;2022-12-07T07:57:40;7.30;;;5.33;;
8327;SDS011;4201;48.754;8.864;2022-12-07T08:00:08;7.33;;;4.57;;
8327;SDS011;4201;48.754;8.864;2022-12-07T08:02:34;7.80;;;5.73;;
8327;SDS011;4201;48.754;8.864;2022-12-07T08:05:00;8.83;;;5.63;;
8327;SDS011;4201;48.754;8.864;2022-12-07T08:07:27;9.10;;;6.30;;
8327;SDS011;4201;48.754;8.864;2022-12-07T08:09:53;9.37;;;5.80;;
8327;SDS011;4201;48.754;8.864;2022-12-07T08:12:21;8.37;;;5.70;;
8327;SDS011;4201;48.754;8.864;2022-12-07T08:14:47;10.03;;;6.40;;
8327;SDS011;4201;48.754;8.864;2022-12-07T08:17:13;8.10;;;5.83;;
8327;SDS011;4201;48.754;8.864;2022-12-07T08:19:40;9.93;;;5.97;;
8327;SDS011;4201;48.754;8.864;2022-12-07T08:22:06;6.43;;;4.67;;
8327;SDS011;4201;48.754;8.864;2022-12-07T08:24:33;9.33;;;6.43;;
8327;SDS011;4201;48.754;8.864;2022-12-07T08:26:59;8.03;;;5.67;;
8327;SDS011;4201;48.754;8.864;2022-12-07T08:29:27;7.50;;;5.60;;
8327;SDS011;4201;48.754;8.864;2022-12-07T08:31:53;12.63;;;6.30;;
8327;SDS011;4201;48.754;8.864;2022-12-07T08:34:20;9.17;;;5.53;;
8327;SDS011;4201;48.754;8.864;2022-12-07T08:36:46;6.93;;;5.20;;
8327;SDS011;4201;48.754;8.864;2022-12-07T08:39:12;7.40;;;5.23;;
8327;SDS011;4201;48.754;8.864;2022-12-07T08:41:38;7.97;;;6.20;;
8327;SDS011;4201;48.754;8.864;2022-12-07T08:44:05;7.40;;;5.00;;
8327;SDS011;4201;48.754;8.864;2022-12-07T08:46:33;7.90;;;4.47;;
8327;SDS011;4201;48.754;8.864;2022-12-07T08:49:03;8.27;;;5.30;;
8327;SDS011;4201;48.754;8.864;2022-12-07T08:51:31;10.00;;;5.40;;
8327;SDS011;4201;48.754;8.864;2022-12-07T08:53:57;8.17;;;5.63;;
8327;SDS011;4201;48.754;8.864;2022-12-07T08:56:24;8.27;;;5.60;;
8327;SDS011;4201;48.754;8.864;2022-12-07T08:58:51;11.20;;;6.73;;
8327;SDS011;4201;48.754;8.864;2022-12-07T09:01:18;8.73;;;5.17;;
8327;SDS011;4201;48.754;8.864;2022-12-07T09:03:45;10.53;;;6.10;;
8327;SDS011;4201;48.754;8.864;2022-12-07T09:06:11;9.50;;;5.27;;
8327;SDS011;4201;48.754;8.864;2022-12-07T09:08:39;9.50;;;6.30;;
8327;SDS011;4201;48.754;8.864;2022-12-07T09:11:06;8.00;;;5.53;;
8327;SDS011;4201;48.754;8.864;2022-12-07T09:13:32;8.50;;;5.17;;
8327;SDS011;4201;48.754;8.864;2022-12-07T09:15:59;7.80;;;5.00;;
8327;SDS011;4201;48.754;8.864;2022-12-07T09:18:25;7.73;;;5.63;;
8327;SDS011;4201;48.754;8.864;2022-12-07T09:20:53;7.50;;;5.37;;
8327;SDS011;4201;48.754;8.864;2022-12-07T09:23:19;8.30;;;5.47;;
8327;SDS011;4201;48.754;8.864;2022-12-07T09:25:46;7.40;;;5.27;;
8327;SDS011;4201;48.754;8.864;2022-12-07T09:28:12;8.30;;;5.13;;
8327;SDS011;4201;48.754;8.864;2022-12-07T09:30:38;8.90;;;4.73;;
8327;SDS011;4201;48.754;8.864;2022-12-07T09:33:05;12.00;;;5.03;;
8327;SDS011;4201;48.754;8.864;2022-12-07T09:35:31;10.07;;;6.30;;
8327;SDS011;4201;48.754;8.864;2022-12-07T09:37:59;8.43;;;5.57;;
8327;SDS011;4201;48.754;8.864;2022-12-07T09:40:25;11.03;;;6.63;;
8327;SDS011;4201;48.754;8.864;2022-12-07T09:42:51;8.20;;;5.60;;
8327;SDS011;4201;48.754;8.864;2022-12-07T09:45:19;10.30;;;6.20;;
8327;SDS011;4201;48.754;8.864;2022-12-07T09:47:47;10.73;;;6.77;;
8327;SDS011;4201;48.754;8.864;2022-12-07T09:50:14;9.00;;;5.77;;
8327;SDS011;4201;48.754;8.864;2022-12-07T09:52:41;8.00;;;5.60;;
8327;SDS011;4201;48.754;8.864;2022-12-07T09:55:10;7.90;;;5.40;;
8327;SDS011;4201;48.754;8.864;2022-12-07T09:57:37;8.40;;;4.50;;
8327;SDS011;4201;48.754;8.864;2022-12-07T10:00:06;7.10;;;4.43;;
8327;SDS011;4201;48.754;8.864;2022-12-07T10:02:35;10.90;;;5.37;;
8327;SDS011;4201;48.754;8.864;2022-12-07T10:05:02;8.30;;;5.27;;
8327;SDS011;4201;48.754;8.864;2022-12-07T10:07:29;9.67;;;4.47;;
8327;SDS011;4201;48.754;8.864;2022-12-07T10:09:55;7.40;;;4.73;;
8327;SDS011;4201;48.754;8.864;2022-12-07T10:12:23;6.53;;;4.70;;
8327;SDS011;4201;48.754;8.864;2022-12-07T10:14:54;6.27;;;4.80;;
8327;SDS011;4201;48.754;8.864;2022-12-07T10:17:32;7.47;;;4.37;;
8327;SDS011;4201;48.754;8.864;2022-12-07T10:20:08;8.60;;;5.13;;
8327;SDS011;4201;48.754;8.864;2022-12-07T10:22:34;9.10;;;6.27;;
8327;SDS011;4201;48.754;8.864;2022-12-07T10:25:07;9.43;;;6.40;;
8327;SDS011;4201;48.754;8.864;2022-12-07T10:27:35;6.30;;;4.57;;
8327;SDS011;4201;48.754;8.864;2022-12-07T10:30:01;11.37;;;5.50;;
8327;SDS011;4201;48.754;8.864;2022-12-07T10:32:33;7.97;;;5.47;;
8327;SDS011;4201;48.754;8.864;2022-12-07T10:37:48;6.67;;;4.20;;
8327;SDS011;4201;48.754;8.864;2022-12-07T10:43:15;5.37;;;3.97;;
8327;SDS011;4201;48.754;8.864;2022-12-07T10:45:44;4.77;;;2.67;;
8327;SDS011;4201;48.754;8.864;2022-12-07T10:48:24;4.10;;;2.80;;
8327;SDS011;4201;48.754;8.864;2022-12-07T10:50:58;4.70;;;3.00;;
8327;SDS011;4201;48.754;8.864;2022-12-07T10:53:31;4.23;;;3.10;;
8327;SDS011;4201;48.754;8.864;2022-12-07T10:56:20;4.07;;;3.27;;
8327;SDS011;4201;48.754;8.864;2022-12-07T10:58:53;4.60;;;3.37;;
8327;SDS011;4201;48.754;8.864;2022-12-07T11:01:23;5.07;;;3.30;;
8327;SDS011;4201;48.754;8.864;2022-12-07T11:03:53;4.47;;;2.80;;
8327;SDS011;4201;48.754;8.864;2022-12-07T11:06:25;4.00;;;2.67;;
8327;SDS011;4201;48.754;8.864;2022-12-07T11:08:59;5.40;;;2.97;;
8327;SDS011;4201;48.754;8.864;2022-12-07T11:11:27;6.20;;;2.63;;
8327;SDS011;4201;48.754;8.864;2022-12-07T11:13:59;5.10;;;3.20;;
8327;SDS011;4201;48.754;8.864;2022-12-07T11:16:32;4.40;;;2.80;;
8327;SDS011;4201;48.754;8.864;2022-12-07T11:19:11;4.43;;;2.90;;
8327;SDS011;4201;48.754;8.864;2022-12-07T11:21:40;7.63;;;2.87;;
8327;SDS011;4201;48.754;8.864;2022-12-07T11:24:13;5.00;;;2.40;;
8327;SDS011;4201;48.754;8.864;2022-12-07T11:26:42;3.47;;;2.63;;
8327;SDS011;4201;48.754;8.864;2022-12-07T11:29:24;4.10;;;2.57;;
8327;SDS011;4201;48.754;8.864;2022-12-07T11:31:55;4.43;;;2.77;;
8327;SDS011;4201;48.754;8.864;2022-12-07T11:34:25;3.87;;;2.43;;
8327;SDS011;4201;48.754;8.864;2022-12-07T11:36:53;5.50;;;3.57;;
8327;SDS011;4201;48.754;8.864;2022-12-07T11:39:22;4.30;;;3.40;;
8327;SDS011;4201;48.754;8.864;2022-12-07T11:41:52;4.20;;;3.17;;
8327;SDS011;4201;48.754;8.864;2022-12-07T11:44:25;4.73;;;2.60;;
8327;SDS011;4201;48.754;8.864;2022-12-07T11:46:54;5.57;;;2.77;;
8327;SDS011;4201;48.754;8.864;2022-12-07T11:49:23;4.13;;;2.30;;
8327;SDS011;4201;48.754;8.864;2022-12-07T11:51:53;5.53;;;2.73;;
8327;SDS011;4201;48.754;8.864;2022-12-07T11:54:24;6.47;;;3.70;;
8327;SDS011;4201;48.754;8.864;2022-12-07T11:56:52;3.60;;;2.43;;
8327;SDS011;4201;48.754;8.864;2022-12-07T11:59:23;3.70;;;1.80;;
8327;SDS011;4201;48.754;8.864;2022-12-07T12:01:55;4.00;;;2.87;;
8327;SDS011;4201;48.754;8.864;2022-12-07T12:04:25;4.10;;;2.80;;
8327;SDS011;4201;48.754;8.864;2022-12-07T12:06:53;3.57;;;2.13;;
8327;SDS011;4201;48.754;8.864;2022-12-07T12:09:21;6.73;;;3.17;;
8327;SDS011;4201;48.754;8.864;2022-12-07T12:11:56;4.37;;;3.10;;
8327;SDS011;4201;48.754;8.864;2022-12-07T12:14:30;4.73;;;2.93;;
8327;SDS011;4201;48.754;8.864;2022-12-07T12:19:54;6.37;;;3.00;;
8327;SDS011;4201;48.754;8.864;2022-12-07T12:24:55;4.43;;;3.10;;
8327;SDS011;4201;48.754;8.864;2022-12-07T12:27:23;5.83;;;3.37;;
8327;SDS011;4201;48.754;8.864;2022-12-07T12:29:51;4.47;;;3.17;;
8327;SDS011;4201;48.754;8.864;2022-12-07T12:32:19;7.00;;;3.43;;
8327;SDS011;4201;48.754;8.864;2022-12-07T12:35:02;5.77;;;3.60;;
8327;SDS011;4201;48.754;8.864;2022-12-07T12:43:26;5.73;;;3.87;;
8327;SDS011;4201;48.754;8.864;2022-12-07T12:45:53;5.60;;;3.43;;
8327;SDS011;4201;48.754;8.864;2022-12-07T12:48:41;6.60;;;4.10;;
8327;SDS011;4201;48.754;8.864;2022-12-07T12:54:03;6.90;;;4.40;;
8327;SDS011;4201;48.754;8.864;2022-12-07T12:56:33;5.70;;;4.00;;
8327;SDS011;4201;48.754;8.864;2022-12-07T13:01:47;6.23;;;4.40;;
8327;SDS011;4201;48.754;8.864;2022-12-07T13:04:28;7.40;;;4.83;;
8327;SDS011;4201;48.754;8.864;2022-12-07T13:06:55;6.17;;;4.20;;
8327;SDS011;4201;48.754;8.864;2022-12-07T13:09:23;7.03;;;4.77;;
8327;SDS011;4201;48.754;8.864;2022-12-07T13:11:55;7.23;;;5.30;;
8327;SDS011;4201;48.754;8.864;2022-12-07T13:14:37;8.17;;;5.60;;
8327;SDS011;4201;48.754;8.864;2022-12-07T13:17:07;7.87;;;5.17;;
8327;SDS011;4201;48.754;8.864;2022-12-07T13:25:29;7.70;;;5.37;;
8327;SDS011;4201;48.754;8.864;2022-12-07T13:27:57;9.67;;;5.40;;
8327;SDS011;4201;48.754;8.864;2022-12-07T13:30:23;8.40;;;5.73;;
8327;SDS011;4201;48.754;8.864;2022-12-07T13:32:53;7.20;;;5.13;;
8327;SDS011;4201;48.754;8.864;2022-12-07T13:35:30;8.27;;;5.40;;
8327;SDS011;4201;48.754;8.864;2022-12-07T13:37:56;10.13;;;6.20;;
8327;SDS011;4201;48.754;8.864;2022-12-07T13:40:23;9.77;;;6.50;;
8327;SDS011;4201;48.754;8.864;2022-12-07T13:42:58;8.70;;;6.40;;
8327;SDS011;4201;48.754;8.864;2022-12-07T13:45:25;8.90;;;6.17;;
8327;SDS011;4201;48.754;8.864;2022-12-07T13:48:13;10.17;;;6.53;;
8327;SDS011;4201;48.754;8.864;2022-12-07T13:50:41;6.97;;;5.10;;
8327;SDS011;4201;48.754;8.864;2022-12-07T13:53:10;11.20;;;6.80;;
8327;SDS011;4201;48.754;8.864;2022-12-07T13:55:37;9.03;;;6.40;;
8327;SDS011;4201;48.754;8.864;2022-12-07T13:58:11;8.53;;;5.83;;
8327;SDS011;4201;48.754;8.864;2022-12-07T14:00:39;11.83;;;7.23;;
8327;SDS011;4201;48.754;8.864;2022-12-07T14:03:27;9.53;;;6.47;;
8327;SDS011;4201;48.754;8.864;2022-12-07T14:06:05;9.80;;;7.00;;
8327;SDS011;4201;48.754;8.864;2022-12-07T14:08:31;11.13;;;7.60;;
8327;SDS011;4201;48.754;8.864;2022-12-07T14:10:58;11.13;;;8.20;;
8327;SDS011;4201;48.754;8.864;2022-12-07T14:13:27;10.17;;;7.00;;
8327;SDS011;4201;48.754;8.864;2022-12-07T14:15:55;11.77;;;7.20;;
8327;SDS011;4201;48.754;8.864;2022-12-07T14:18:25;15.40;;;9.90;;
8327;SDS011;4201;48.754;8.864;2022-12-07T14:21:01;10.73;;;7.23;;
8327;SDS011;4201;48.754;8.864;2022-12-07T14:23:28;14.50;;;8.23;;
8327;SDS011;4201;48.754;8.864;2022-12-07T14:26:03;16.10;;;9.23;;
8327;SDS011;4201;48.754;8.864;2022-12-07T14:28:32;12.20;;;8.40;;
8327;SDS011;4201;48.754;8.864;2022-12-07T14:30:59;9.53;;;7.37;;
8327;SDS011;4201;48.754;8.864;2022-12-07T14:33:25;12.23;;;7.63;;
8327;SDS011;4201;48.754;8.864;2022-12-07T14:35:52;12.00;;;7.90;;
8327;SDS011;4201;48.754;8.864;2022-12-07T14:38:20;13.23;;;8.33;;
8327;SDS011;4201;48.754;8.864;2022-12-07T14:40:46;13.07;;;8.60;;
8327;SDS011;4201;48.754;8.864;2022-12-07T14:43:14;11.07;;;7.77;;
8327;SDS011;4201;48.754;8.864;2022-12-07T14:45:42;12.87;;;8.40;;
8327;SDS011;4201;48.754;8.864;2022-12-07T14:48:09;14.60;;;8.67;;
8327;SDS011;4201;48.754;8.864;2022-12-07T14:50:37;12.37;;;7.73;;
8327;SDS011;4201;48.754;8.864;2022-12-07T14:53:05;13.70;;;8.53;;
8327;SDS011;4201;48.754;8.864;2022-12-07T14:55:35;13.77;;;8.87;;
8327;SDS011;4201;48.754;8.864;2022-12-07T14:58:01;11.70;;;7.77;;
8327;SDS011;4201;48.754;8.864;2022-12-07T15:00:28;13.50;;;8.77;;
8327;SDS011;4201;48.754;8.864;2022-12-07T15:02:56;9.40;;;6.70;;
8327;SDS011;4201;48.754;8.864;2022-12-07T15:05:22;11.70;;;7.47;;
8327;SDS011;4201;48.754;8.864;2022-12-07T15:07:49;13.83;;;8.77;;
8327;SDS011;4201;48.754;8.864;2022-12-07T15:10:16;11.43;;;7.53;;
8327;SDS011;4201;48.754;8.864;2022-12-07T15:12:43;14.10;;;8.40;;
8327;SDS011;4201;48.754;8.864;2022-12-07T15:15:10;15.40;;;9.20;;
8327;SDS011;4201;48.754;8.864;2022-12-07T15:17:36;20.57;;;11.33;;
8327;SDS011;4201;48.754;8.864;2022-12-07T15:20:04;17.93;;;10.70;;
8327;SDS011;4201;48.754;8.864;2022-12-07T15:22:31;16.00;;;10.97;;
8327;SDS011;4201;48.754;8.864;2022-12-07T15:24:57;19.00;;;12.97;;
8327;SDS011;4201;48.754;8.864;2022-12-07T15:27:23;16.90;;;11.17;;
8327;SDS011;4201;48.754;8.864;2022-12-07T15:29:50;17.80;;;11.40;;
8327;SDS011;4201;48.754;8.864;2022-12-07T15:32:16;15.73;;;9.23;;
8327;SDS011;4201;48.754;8.864;2022-12-07T15:34:42;13.73;;;9.90;;
8327;SDS011;4201;48.754;8.864;2022-12-07T15:37:10;13.13;;;8.63;;
8327;SDS011;4201;48.754;8.864;2022-12-07T15:39:36;14.53;;;9.03;;
8327;SDS011;4201;48.754;8.864;2022-12-07T15:42:03;14.80;;;10.00;;